createdAt,value
2018-07-03T00:00:02.192Z,95610.00
2018-07-03T00:00:34.196Z,95611.00
2018-07-03T00:01:06.225Z,95607.00
2018-07-03T00:01:38.239Z,95609.00
2018-07-03T00:02:10.246Z,95603.00
2018-07-03T00:02:42.269Z,95608.00
2018-07-03T00:03:14.320Z,95608.00
2018-07-03T00:03:46.326Z,95606.00
2018-07-03T00:04:18.355Z,95609.00
2018-07-03T00:04:50.386Z,95615.00
2018-07-03T00:05:22.407Z,95608.00
2018-07-03T00:05:54.433Z,95602.00
2018-07-03T00:06:26.454Z,95604.00
2018-07-03T00:06:58.483Z,95600.00
2018-07-03T00:07:30.523Z,95605.00
2018-07-03T00:08:02.607Z,95606.00
2018-07-03T00:08:34.633Z,95607.00
2018-07-03T00:09:06.644Z,95609.00
2018-07-03T00:09:38.671Z,95606.00
2018-07-03T00:10:10.689Z,95611.00
2018-07-03T00:10:42.700Z,95609.00
2018-07-03T00:11:14.711Z,95609.00
2018-07-03T00:11:46.724Z,95609.00
2018-07-03T00:12:18.746Z,95609.00
2018-07-03T00:12:50.771Z,95613.00
2018-07-03T00:13:22.814Z,95612.00
2018-07-03T00:13:54.852Z,95608.00
2018-07-03T00:14:26.892Z,95612.00
2018-07-03T00:14:58.913Z,95612.00
2018-07-03T00:15:30.927Z,95608.00
2018-07-03T00:16:02.956Z,95609.00
2018-07-03T00:16:34.983Z,95607.00
2018-07-03T00:17:07.018Z,95603.00
2018-07-03T00:17:39.044Z,95602.00
2018-07-03T00:18:11.055Z,95606.00
2018-07-03T00:18:43.063Z,95601.00
2018-07-03T00:19:15.085Z,95610.00
2018-07-03T00:19:47.125Z,95603.00
2018-07-03T00:20:19.142Z,95597.00
2018-07-03T00:20:51.167Z,95601.00
2018-07-03T00:21:23.178Z,95603.00
2018-07-03T00:21:55.205Z,95599.00
2018-07-03T00:22:27.245Z,95600.00
2018-07-03T00:22:59.266Z,95599.00
2018-07-03T00:23:31.293Z,95597.00
2018-07-03T00:24:03.317Z,95596.00
2018-07-03T00:24:35.343Z,95597.00
2018-07-03T00:25:07.361Z,95592.00
2018-07-03T00:25:39.389Z,95597.00
2018-07-03T00:26:11.427Z,95595.00
2018-07-03T00:26:43.453Z,95593.00
2018-07-03T00:27:15.491Z,95598.00
2018-07-03T00:27:47.534Z,95595.00
2018-07-03T00:28:19.550Z,95594.00
2018-07-03T00:28:51.583Z,95592.00
2018-07-03T00:29:23.626Z,95591.00
2018-07-03T00:29:55.641Z,95599.00
2018-07-03T00:30:27.656Z,95596.00
2018-07-03T00:30:59.689Z,95603.00
2018-07-03T00:31:31.711Z,95599.00
2018-07-03T00:32:03.750Z,95594.00
2018-07-03T00:32:35.756Z,95598.00
2018-07-03T00:33:07.792Z,95597.00
2018-07-03T00:33:39.818Z,95596.00
2018-07-03T00:34:11.835Z,95593.00
2018-07-03T00:34:43.851Z,95596.00
2018-07-03T00:35:15.878Z,95593.00
2018-07-03T00:35:47.897Z,95598.00
2018-07-03T00:36:19.915Z,95595.00
2018-07-03T00:36:51.936Z,95592.00
2018-07-03T00:37:23.956Z,95593.00
2018-07-03T00:37:55.956Z,95592.00
2018-07-03T00:38:27.991Z,95597.00
2018-07-03T00:39:00.019Z,95596.00
2018-07-03T00:39:32.029Z,95597.00
2018-07-03T00:40:04.041Z,95592.00
2018-07-03T00:40:36.070Z,95589.00
2018-07-03T00:41:08.081Z,95585.00
2018-07-03T00:41:40.112Z,95589.00
2018-07-03T00:42:12.169Z,95588.00
2018-07-03T00:42:44.173Z,95588.00
2018-07-03T00:43:16.184Z,95588.00
2018-07-03T00:43:48.211Z,95589.00
2018-07-03T00:44:20.272Z,95588.00
2018-07-03T00:44:52.322Z,95591.00
2018-07-03T00:45:24.369Z,95590.00
2018-07-03T00:45:56.425Z,95587.00
2018-07-03T00:46:28.443Z,95591.00
2018-07-03T00:47:00.481Z,95591.00
2018-07-03T00:47:32.478Z,95588.00
2018-07-03T00:48:04.501Z,95591.00
2018-07-03T00:48:36.536Z,95594.00
2018-07-03T00:49:08.545Z,95590.00
2018-07-03T00:49:40.668Z,95589.00
2018-07-03T00:50:12.734Z,95589.00
2018-07-03T00:50:44.796Z,95592.00
2018-07-03T00:51:16.840Z,95590.00
2018-07-03T00:51:48.890Z,95591.00
2018-07-03T00:52:20.980Z,95593.00
2018-07-03T00:52:53.027Z,95587.00
2018-07-03T00:53:25.084Z,95585.00
2018-07-03T00:53:57.163Z,95589.00
2018-07-03T00:54:29.214Z,95583.00
2018-07-03T00:55:01.252Z,95582.00
2018-07-03T00:55:33.304Z,95583.00
2018-07-03T00:56:05.291Z,95584.00
2018-07-03T00:56:37.311Z,95585.00
2018-07-03T00:57:09.334Z,95589.00
2018-07-03T00:57:41.343Z,95582.00
2018-07-03T00:58:13.378Z,95585.00
2018-07-03T00:58:45.421Z,95584.00
2018-07-03T00:59:17.500Z,95583.00
2018-07-03T00:59:49.525Z,95589.00
2018-07-03T01:00:21.530Z,95586.00
2018-07-03T01:00:53.532Z,95584.00
2018-07-03T01:01:25.559Z,95585.00
2018-07-03T01:01:57.593Z,95585.00
2018-07-03T01:02:29.614Z,95580.00
2018-07-03T01:03:01.642Z,95578.00
2018-07-03T01:03:33.672Z,95584.00
2018-07-03T01:04:05.671Z,95581.00
2018-07-03T01:04:37.708Z,95583.00
2018-07-03T01:05:09.730Z,95584.00
2018-07-03T01:05:41.739Z,95587.00
2018-07-03T01:06:13.754Z,95582.00
2018-07-03T01:06:45.803Z,95579.00
2018-07-03T01:07:17.830Z,95586.00
2018-07-03T01:07:49.854Z,95582.00
2018-07-03T01:08:21.881Z,95588.00
2018-07-03T01:08:53.934Z,95588.00
2018-07-03T01:09:25.975Z,95588.00
2018-07-03T01:09:58.008Z,95594.00
2018-07-03T01:10:30.048Z,95591.00
2018-07-03T01:11:02.037Z,95591.00
2018-07-03T01:11:34.058Z,95593.00
2018-07-03T01:12:06.137Z,95592.00
2018-07-03T01:12:38.175Z,95594.00
2018-07-03T01:13:10.160Z,95594.00
2018-07-03T01:13:42.176Z,95593.00
2018-07-03T01:14:14.219Z,95589.00
2018-07-03T01:14:46.232Z,95593.00
2018-07-03T01:15:18.239Z,95592.00
2018-07-03T01:15:50.273Z,95592.00
2018-07-03T01:16:22.320Z,95593.00
2018-07-03T01:16:54.330Z,95591.00
2018-07-03T01:17:26.345Z,95589.00
2018-07-03T01:17:58.394Z,95584.00
2018-07-03T01:18:30.414Z,95585.00
2018-07-03T01:19:02.435Z,95584.00
2018-07-03T01:19:34.441Z,95584.00
2018-07-03T01:20:06.483Z,95585.00
2018-07-03T01:20:38.506Z,95587.00
2018-07-03T01:21:10.520Z,95586.00
2018-07-03T01:21:42.547Z,95588.00
2018-07-03T01:22:14.576Z,95583.00
2018-07-03T01:22:46.582Z,95586.00
2018-07-03T01:23:18.593Z,95587.00
2018-07-03T01:23:50.657Z,95581.00
2018-07-03T01:24:22.685Z,95589.00
2018-07-03T01:24:54.698Z,95587.00
2018-07-03T01:25:26.714Z,95588.00
2018-07-03T01:25:58.771Z,95584.00
2018-07-03T01:26:30.784Z,95581.00
2018-07-03T01:27:02.796Z,95578.00
2018-07-03T01:27:34.802Z,95584.00
2018-07-03T01:28:06.822Z,95585.00
2018-07-03T01:28:38.856Z,95587.00
2018-07-03T01:29:10.874Z,95582.00
2018-07-03T01:29:42.900Z,95585.00
2018-07-03T01:30:14.940Z,95581.00
2018-07-03T01:30:46.937Z,95584.00
2018-07-03T01:31:18.967Z,95583.00
2018-07-03T01:31:51.001Z,95585.00
2018-07-03T01:32:23.031Z,95579.00
2018-07-03T01:32:55.056Z,95581.00
2018-07-03T01:33:27.112Z,95583.00
2018-07-03T01:33:59.260Z,95587.00
2018-07-03T01:34:31.253Z,95587.00
2018-07-03T01:35:03.256Z,95588.00
2018-07-03T01:35:35.271Z,95585.00
2018-07-03T01:36:07.331Z,95584.00
2018-07-03T01:36:39.335Z,95589.00
2018-07-03T01:37:11.342Z,95589.00
2018-07-03T01:37:43.387Z,95589.00
2018-07-03T01:38:15.403Z,95590.00
2018-07-03T01:38:47.433Z,95590.00
2018-07-03T01:39:19.435Z,95591.00
2018-07-03T01:39:51.459Z,95588.00
2018-07-03T01:40:23.555Z,95592.00
2018-07-03T01:40:55.579Z,95590.00
2018-07-03T01:41:27.605Z,95592.00
2018-07-03T01:41:59.623Z,95593.00
2018-07-03T01:42:31.662Z,95593.00
2018-07-03T01:43:03.732Z,95594.00
2018-07-03T01:43:35.749Z,95588.00
2018-07-03T01:44:07.770Z,95590.00
2018-07-03T01:44:39.815Z,95585.00
2018-07-03T01:45:11.835Z,95588.00
2018-07-03T01:45:43.878Z,95585.00
2018-07-03T01:46:15.889Z,95583.00
2018-07-03T01:46:47.907Z,95589.00
2018-07-03T01:47:19.918Z,95588.00
2018-07-03T01:47:51.955Z,95587.00
2018-07-03T01:48:23.974Z,95589.00
2018-07-03T01:48:56.015Z,95587.00
2018-07-03T01:49:28.068Z,95586.00
2018-07-03T01:50:00.095Z,95589.00
2018-07-03T01:50:32.126Z,95589.00
2018-07-03T01:51:04.138Z,95585.00
2018-07-03T01:51:36.161Z,95582.00
2018-07-03T01:52:08.209Z,95584.00
2018-07-03T01:52:40.242Z,95589.00
2018-07-03T01:53:12.256Z,95585.00
2018-07-03T01:53:44.264Z,95590.00
2018-07-03T01:54:16.359Z,95590.00
2018-07-03T01:54:48.437Z,95588.00
2018-07-03T01:55:20.452Z,95588.00
2018-07-03T01:55:52.485Z,95592.00
2018-07-03T01:56:24.514Z,95595.00
2018-07-03T01:56:56.531Z,95592.00
2018-07-03T01:57:28.535Z,95594.00
2018-07-03T01:58:01.003Z,95593.00
2018-07-03T01:58:32.915Z,95594.00
2018-07-03T01:59:04.993Z,95599.00
2018-07-03T01:59:36.972Z,95592.00
2018-07-03T02:00:09.000Z,95595.00
2018-07-03T02:00:41.026Z,95595.00
2018-07-03T02:01:13.055Z,95596.00
2018-07-03T02:01:45.072Z,95592.00
2018-07-03T02:02:17.138Z,95595.00
2018-07-03T02:02:49.154Z,95597.00
2018-07-03T02:03:21.220Z,95594.00
2018-07-03T02:03:53.227Z,95594.00
2018-07-03T02:04:25.239Z,95597.00
2018-07-03T02:04:57.271Z,95598.00
2018-07-03T02:05:29.306Z,95597.00
2018-07-03T02:06:01.329Z,95596.00
2018-07-03T02:06:33.417Z,95593.00
2018-07-03T02:07:05.476Z,95598.00
2018-07-03T02:07:37.510Z,95597.00
2018-07-03T02:08:09.519Z,95597.00
2018-07-03T02:08:41.549Z,95593.00
2018-07-03T02:09:13.573Z,95594.00
2018-07-03T02:09:45.652Z,95587.00
2018-07-03T02:10:17.673Z,95587.00
2018-07-03T02:10:49.696Z,95590.00
2018-07-03T02:11:21.688Z,95590.00
2018-07-03T02:11:53.739Z,95593.00
2018-07-03T02:12:25.774Z,95589.00
2018-07-03T02:12:57.769Z,95587.00
2018-07-03T02:13:29.773Z,95590.00
2018-07-03T02:14:01.796Z,95591.00
2018-07-03T02:14:33.825Z,95590.00
2018-07-03T02:15:05.880Z,95591.00
2018-07-03T02:15:37.879Z,95595.00
2018-07-03T02:16:09.934Z,95595.00
2018-07-03T02:16:42.000Z,95592.00
2018-07-03T02:17:14.015Z,95591.00
2018-07-03T02:17:46.032Z,95590.00
2018-07-03T02:18:18.041Z,95587.00
2018-07-03T02:18:50.057Z,95589.00
2018-07-03T02:19:22.074Z,95589.00
2018-07-03T02:19:54.115Z,95588.00
2018-07-03T02:20:26.142Z,95587.00
2018-07-03T02:20:58.138Z,95590.00
2018-07-03T02:21:30.177Z,95591.00
2018-07-03T02:22:02.190Z,95591.00
2018-07-03T02:22:34.217Z,95587.00
2018-07-03T02:23:06.264Z,95587.00
2018-07-03T02:23:38.280Z,95589.00
2018-07-03T02:24:10.309Z,95586.00
2018-07-03T02:24:42.342Z,95587.00
2018-07-03T02:25:14.365Z,95586.00
2018-07-03T02:25:46.372Z,95588.00
2018-07-03T02:26:18.434Z,95588.00
2018-07-03T02:26:50.448Z,95587.00
2018-07-03T02:27:22.464Z,95587.00
2018-07-03T02:27:54.479Z,95589.00
2018-07-03T02:28:26.517Z,95587.00
2018-07-03T02:28:58.528Z,95585.00
2018-07-03T02:29:30.535Z,95582.00
2018-07-03T02:30:02.586Z,95584.00
2018-07-03T02:30:34.609Z,95585.00
2018-07-03T02:31:06.633Z,95588.00
2018-07-03T02:42:13.436Z,95593.00
2018-07-03T02:42:45.448Z,95595.00
2018-07-03T02:43:17.459Z,95592.00
2018-07-03T02:43:49.474Z,95590.00
2018-07-03T02:44:21.479Z,95594.00
2018-07-03T02:44:53.518Z,95589.00
2018-07-03T02:45:25.590Z,95593.00
2018-07-03T02:45:57.999Z,95592.00
2018-07-03T02:46:30.080Z,95594.00
2018-07-03T02:47:02.301Z,95596.00
2018-07-03T02:47:34.544Z,95593.00
2018-07-03T02:48:06.543Z,95591.00
2018-07-03T02:48:38.548Z,95590.00
2018-07-03T02:49:10.556Z,95598.00
2018-07-03T02:49:42.602Z,95600.00
2018-07-03T02:50:14.609Z,95595.00
2018-07-03T02:50:46.648Z,95595.00
2018-07-03T02:51:18.655Z,95594.00
2018-07-03T02:51:50.678Z,95592.00
2018-07-03T02:52:22.696Z,95591.00
2018-07-03T02:52:54.725Z,95589.00
2018-07-03T02:53:26.740Z,95586.00
2018-07-03T02:53:58.747Z,95589.00
2018-07-03T02:54:30.758Z,95588.00
2018-07-03T02:55:02.821Z,95589.00
2018-07-03T02:55:34.821Z,95589.00
2018-07-03T02:56:06.838Z,95586.00
2018-07-03T02:56:38.847Z,95583.00
2018-07-03T02:57:10.868Z,95585.00
2018-07-03T02:57:42.878Z,95584.00
2018-07-03T02:58:14.967Z,95585.00
2018-07-03T02:58:46.979Z,95585.00
2018-07-03T02:59:19.015Z,95582.00
2018-07-03T02:59:51.076Z,95582.00
2018-07-03T03:00:23.107Z,95584.00
2018-07-03T03:00:55.123Z,95587.00
2018-07-03T03:01:27.151Z,95587.00
2018-07-03T03:01:59.163Z,95588.00
2018-07-03T03:02:31.174Z,95589.00
2018-07-03T03:03:03.195Z,95585.00
2018-07-03T03:03:35.284Z,95586.00
2018-07-03T03:04:07.282Z,95592.00
2018-07-03T03:04:39.311Z,95586.00
2018-07-03T03:05:11.350Z,95594.00
2018-07-03T03:05:43.356Z,95591.00
2018-07-03T03:06:15.379Z,95589.00
2018-07-03T03:06:47.411Z,95592.00
2018-07-03T03:07:19.421Z,95591.00
2018-07-03T03:07:51.438Z,95589.00
2018-07-03T03:08:23.463Z,95588.00
2018-07-03T03:08:55.469Z,95586.00
2018-07-03T03:09:27.483Z,95587.00
2018-07-03T03:09:59.497Z,95584.00
2018-07-03T03:10:31.509Z,95584.00
2018-07-03T03:11:03.531Z,95586.00
2018-07-03T03:11:35.539Z,95584.00
2018-07-03T03:12:07.558Z,95585.00
2018-07-03T03:12:39.567Z,95586.00
2018-07-03T03:13:11.589Z,95580.00
2018-07-03T03:13:43.600Z,95582.00
2018-07-03T03:14:15.607Z,95581.00
2018-07-03T03:14:47.689Z,95582.00
2018-07-03T03:15:19.714Z,95582.00
2018-07-03T03:15:51.712Z,95583.00
2018-07-03T03:16:23.773Z,95582.00
2018-07-03T03:16:55.779Z,95581.00
2018-07-03T03:17:27.804Z,95581.00
2018-07-03T03:17:59.827Z,95582.00
2018-07-03T03:18:31.848Z,95582.00
2018-07-03T03:19:03.880Z,95584.00
2018-07-03T03:19:35.888Z,95587.00
2018-07-03T03:20:07.918Z,95587.00
2018-07-03T03:20:39.937Z,95583.00
2018-07-03T03:21:11.977Z,95584.00
2018-07-03T03:21:43.980Z,95585.00
2018-07-03T03:22:16.001Z,95587.00
2018-07-03T03:22:48.008Z,95594.00
2018-07-03T03:23:20.011Z,95589.00
2018-07-03T03:23:52.037Z,95588.00
2018-07-03T03:24:24.050Z,95592.00
2018-07-03T03:24:56.065Z,95590.00
2018-07-03T03:25:28.074Z,95590.00
2018-07-03T03:26:00.089Z,95592.00
2018-07-03T03:26:32.127Z,95593.00
2018-07-03T03:27:04.122Z,95590.00
2018-07-03T03:27:36.130Z,95593.00
2018-07-03T03:28:08.141Z,95596.00
2018-07-03T03:28:40.147Z,95598.00
2018-07-03T03:29:12.159Z,95599.00
2018-07-03T03:29:44.182Z,95594.00
2018-07-03T03:30:16.241Z,95597.00
2018-07-03T03:30:48.252Z,95594.00
2018-07-03T03:31:20.266Z,95600.00
2018-07-03T03:31:52.279Z,95593.00
2018-07-03T03:32:24.286Z,95592.00
2018-07-03T03:32:56.317Z,95590.00
2018-07-03T03:33:28.337Z,95595.00
2018-07-03T03:34:00.346Z,95596.00
2018-07-03T03:34:32.777Z,95595.00
2018-07-03T03:35:04.682Z,95594.00
2018-07-03T03:35:36.679Z,95596.00
2018-07-03T03:36:08.746Z,95597.00
2018-07-03T03:36:40.749Z,95599.00
2018-07-03T03:37:12.770Z,95600.00
2018-07-03T03:37:44.892Z,95595.00
2018-07-03T03:38:16.873Z,95602.00
2018-07-03T03:38:48.893Z,95595.00
2018-07-03T03:39:20.906Z,95598.00
2018-07-03T03:39:52.915Z,95598.00
2018-07-03T03:40:24.954Z,95600.00
2018-07-03T03:40:56.958Z,95599.00
2018-07-03T03:41:28.969Z,95596.00
2018-07-03T03:42:01.004Z,95598.00
2018-07-03T03:42:33.031Z,95593.00
2018-07-03T03:43:05.036Z,95597.00
2018-07-03T03:43:37.042Z,95593.00
2018-07-03T03:44:09.059Z,95597.00
2018-07-03T03:44:41.094Z,95593.00
2018-07-03T03:45:13.095Z,95595.00
2018-07-03T03:45:45.137Z,95593.00
2018-07-03T03:46:17.143Z,95595.00
2018-07-03T03:46:49.159Z,95594.00
2018-07-03T03:47:21.180Z,95592.00
2018-07-03T03:47:53.199Z,95597.00
2018-07-03T03:48:25.224Z,95595.00
2018-07-03T03:48:57.230Z,95596.00
2018-07-03T03:49:29.251Z,95594.00
2018-07-03T03:50:01.266Z,95599.00
2018-07-03T03:50:33.302Z,95598.00
2018-07-03T03:51:05.315Z,95597.00
2018-07-03T03:51:37.323Z,95595.00
2018-07-03T03:52:09.365Z,95597.00
2018-07-03T03:52:41.356Z,95597.00
2018-07-03T03:53:13.399Z,95597.00
2018-07-03T03:53:45.422Z,95600.00
2018-07-03T03:54:17.418Z,95598.00
2018-07-03T03:54:49.419Z,95598.00
2018-07-03T03:55:21.436Z,95597.00
2018-07-03T03:55:53.445Z,95599.00
2018-07-03T03:56:25.463Z,95602.00
2018-07-03T03:56:57.458Z,95606.00
2018-07-03T03:57:29.467Z,95605.00
2018-07-03T03:58:01.485Z,95605.00
2018-07-03T03:58:33.517Z,95603.00
2018-07-03T03:59:05.540Z,95602.00
2018-07-03T03:59:37.545Z,95601.00
2018-07-03T04:00:09.555Z,95605.00
2018-07-03T04:00:41.581Z,95601.00
2018-07-03T04:01:13.609Z,95601.00
2018-07-03T04:01:45.603Z,95604.00
2018-07-03T04:02:17.617Z,95600.00
2018-07-03T04:02:49.631Z,95603.00
2018-07-03T04:03:21.646Z,95602.00
2018-07-03T04:03:53.665Z,95607.00
2018-07-03T04:04:25.670Z,95604.00
2018-07-03T04:04:57.716Z,95607.00
2018-07-03T04:05:29.737Z,95606.00
2018-07-03T04:06:01.792Z,95611.00
2018-07-03T04:06:33.757Z,95605.00
2018-07-03T04:07:05.778Z,95607.00
2018-07-03T04:07:37.777Z,95604.00
2018-07-03T04:08:09.846Z,95606.00
2018-07-03T04:08:41.855Z,95610.00
2018-07-03T04:09:13.866Z,95609.00
2018-07-03T04:09:45.891Z,95611.00
2018-07-03T04:10:17.898Z,95607.00
2018-07-03T04:10:49.931Z,95609.00
2018-07-03T04:11:21.953Z,95610.00
2018-07-03T04:11:53.962Z,95615.00
2018-07-03T04:12:25.997Z,95610.00
2018-07-03T04:12:57.978Z,95613.00
2018-07-03T04:13:29.979Z,95614.00
2018-07-03T04:14:01.986Z,95612.00
2018-07-03T04:14:34.013Z,95613.00
2018-07-03T04:15:06.037Z,95612.00
2018-07-03T04:15:38.042Z,95610.00
2018-07-03T04:16:10.075Z,95611.00
2018-07-03T04:16:42.147Z,95610.00
2018-07-03T04:17:14.168Z,95609.00
2018-07-03T04:17:46.176Z,95613.00
2018-07-03T04:18:18.197Z,95610.00
2018-07-03T04:18:50.202Z,95614.00
2018-07-03T04:19:22.214Z,95611.00
2018-07-03T04:19:54.224Z,95613.00
2018-07-03T04:20:26.255Z,95613.00
2018-07-03T04:20:58.282Z,95613.00
2018-07-03T04:21:30.290Z,95614.00
2018-07-03T04:22:02.307Z,95610.00
2018-07-03T04:22:34.314Z,95614.00
2018-07-03T04:23:06.335Z,95619.00
2018-07-03T04:23:38.344Z,95620.00
2018-07-03T04:24:10.350Z,95620.00
2018-07-03T04:24:42.367Z,95615.00
2018-07-03T04:25:14.382Z,95618.00
2018-07-03T04:25:46.405Z,95624.00
2018-07-03T04:26:18.425Z,95621.00
2018-07-03T04:26:50.427Z,95622.00
2018-07-03T04:27:22.485Z,95624.00
2018-07-03T04:27:54.504Z,95624.00
2018-07-03T04:28:26.544Z,95621.00
2018-07-03T04:28:58.585Z,95627.00
2018-07-03T04:29:30.598Z,95626.00
2018-07-03T04:30:02.637Z,95626.00
2018-07-03T04:30:34.641Z,95632.00
2018-07-03T04:31:06.665Z,95625.00
2018-07-03T04:31:38.692Z,95637.00
2018-07-03T04:32:10.710Z,95631.00
2018-07-03T04:32:42.719Z,95628.00
2018-07-03T04:33:14.741Z,95630.00
2018-07-03T04:33:46.762Z,95631.00
2018-07-03T04:34:18.766Z,95631.00
2018-07-03T04:34:50.787Z,95634.00
2018-07-03T04:35:22.807Z,95638.00
2018-07-03T04:35:54.810Z,95635.00
2018-07-03T04:36:26.862Z,95636.00
2018-07-03T04:36:58.861Z,95636.00
2018-07-03T04:37:30.875Z,95639.00
2018-07-03T04:38:02.895Z,95634.00
2018-07-03T04:38:34.913Z,95632.00
2018-07-03T04:39:06.946Z,95635.00
2018-07-03T04:39:38.963Z,95638.00
2018-07-03T04:40:10.978Z,95637.00
2018-07-03T04:40:42.990Z,95637.00
2018-07-03T04:41:15.008Z,95635.00
2018-07-03T04:41:47.027Z,95633.00
2018-07-03T04:42:19.047Z,95635.00
2018-07-03T04:42:51.075Z,95638.00
2018-07-03T04:43:23.095Z,95636.00
2018-07-03T04:43:55.114Z,95639.00
2018-07-03T04:44:27.122Z,95637.00
2018-07-03T04:44:59.137Z,95639.00
2018-07-03T04:45:31.160Z,95636.00
2018-07-03T04:46:03.191Z,95641.00
2018-07-03T04:46:35.250Z,95634.00
2018-07-03T04:47:07.262Z,95635.00
2018-07-03T04:47:39.270Z,95634.00
2018-07-03T04:48:11.292Z,95633.00
2018-07-03T04:48:43.312Z,95633.00
2018-07-03T04:49:15.339Z,95629.00
2018-07-03T04:49:47.370Z,95629.00
2018-07-03T04:50:19.396Z,95628.00
2018-07-03T04:50:51.421Z,95629.00
2018-07-03T04:51:23.441Z,95630.00
2018-07-03T04:51:55.456Z,95626.00
2018-07-03T04:52:27.466Z,95628.00
2018-07-03T04:52:59.463Z,95629.00
2018-07-03T04:53:31.520Z,95625.00
2018-07-03T04:54:03.533Z,95628.00
2018-07-03T04:54:35.552Z,95626.00
2018-07-03T04:55:07.564Z,95627.00
2018-07-03T04:55:39.575Z,95628.00
2018-07-03T04:56:11.578Z,95630.00
2018-07-03T04:56:43.863Z,95627.00
2018-07-03T04:57:15.878Z,95628.00
2018-07-03T04:57:47.886Z,95636.00
2018-07-03T04:58:19.918Z,95630.00
2018-07-03T04:58:51.934Z,95637.00
2018-07-03T04:59:23.958Z,95635.00
2018-07-03T04:59:55.977Z,95635.00
2018-07-03T05:00:27.995Z,95634.00
2018-07-03T05:00:59.995Z,95635.00
2018-07-03T05:01:32.010Z,95631.00
2018-07-03T05:02:04.019Z,95630.00
2018-07-03T05:02:36.035Z,95638.00
2018-07-03T05:03:08.074Z,95635.00
2018-07-03T05:03:40.095Z,95634.00
2018-07-03T05:04:12.104Z,95637.00
2018-07-03T05:04:44.126Z,95634.00
2018-07-03T05:05:16.141Z,95638.00
2018-07-03T05:05:48.154Z,95638.00
2018-07-03T05:06:20.168Z,95638.00
2018-07-03T05:06:52.193Z,95639.00
2018-07-03T05:07:24.198Z,95643.00
2018-07-03T05:07:56.219Z,95639.00
2018-07-03T05:08:28.231Z,95638.00
2018-07-03T05:09:00.238Z,95642.00
2018-07-03T05:09:32.277Z,95641.00
2018-07-03T05:10:04.762Z,95637.00
2018-07-03T05:10:36.667Z,95642.00
2018-07-03T05:11:08.683Z,95639.00
2018-07-03T05:11:40.689Z,95645.00
2018-07-03T05:12:12.753Z,95649.00
2018-07-03T05:12:44.766Z,95644.00
2018-07-03T05:13:16.775Z,95645.00
2018-07-03T05:13:48.798Z,95645.00
2018-07-03T05:14:20.803Z,95646.00
2018-07-03T05:14:52.807Z,95648.00
2018-07-03T05:15:24.829Z,95646.00
2018-07-03T05:15:56.853Z,95646.00
2018-07-03T05:16:28.873Z,95647.00
2018-07-03T05:17:00.887Z,95645.00
2018-07-03T05:17:32.954Z,95644.00
2018-07-03T05:18:04.920Z,95647.00
2018-07-03T05:18:36.933Z,95647.00
2018-07-03T05:19:08.952Z,95649.00
2018-07-03T05:19:40.961Z,95647.00
2018-07-03T05:20:12.977Z,95647.00
2018-07-03T05:20:45.025Z,95645.00
2018-07-03T05:21:17.044Z,95645.00
2018-07-03T05:21:49.054Z,95648.00
2018-07-03T05:22:21.118Z,95648.00
2018-07-03T05:22:53.139Z,95647.00
2018-07-03T05:23:25.156Z,95650.00
2018-07-03T05:23:57.162Z,95645.00
2018-07-03T05:24:29.169Z,95647.00
2018-07-03T05:25:01.175Z,95642.00
2018-07-03T05:25:33.199Z,95650.00
2018-07-03T05:26:05.215Z,95648.00
2018-07-03T05:26:37.226Z,95649.00
2018-07-03T05:27:09.251Z,95651.00
2018-07-03T05:27:41.254Z,95648.00
2018-07-03T05:28:13.276Z,95648.00
2018-07-03T05:28:45.286Z,95648.00
2018-07-03T05:29:17.305Z,95650.00
2018-07-03T05:29:49.308Z,95652.00
2018-07-03T05:30:21.338Z,95652.00
2018-07-03T05:30:53.355Z,95651.00
2018-07-03T05:31:25.435Z,95651.00
2018-07-03T05:31:57.399Z,95651.00
2018-07-03T05:32:29.412Z,95652.00
2018-07-03T05:33:01.427Z,95654.00
2018-07-03T05:33:33.443Z,95654.00
2018-07-03T05:34:05.582Z,95654.00
2018-07-03T05:34:37.575Z,95656.00
2018-07-03T05:35:09.582Z,95660.00
2018-07-03T05:35:41.596Z,95660.00
2018-07-03T05:36:13.628Z,95658.00
2018-07-03T05:36:45.638Z,95663.00
2018-07-03T05:37:18.086Z,95663.00
2018-07-03T05:37:49.960Z,95661.00
2018-07-03T05:38:21.969Z,95667.00
2018-07-03T05:38:53.988Z,95663.00
2018-07-03T05:39:26.068Z,95669.00
2018-07-03T05:39:58.093Z,95671.00
2018-07-03T05:40:30.094Z,95665.00
2018-07-03T05:41:02.109Z,95663.00
2018-07-03T05:41:34.107Z,95664.00
2018-07-03T05:42:06.184Z,95661.00
2018-07-03T05:42:38.140Z,95668.00
2018-07-03T05:43:10.160Z,95664.00
2018-07-03T05:43:42.166Z,95669.00
2018-07-03T05:44:14.203Z,95664.00
2018-07-03T05:44:46.207Z,95667.00
2018-07-03T05:45:18.225Z,95662.00
2018-07-03T05:45:50.246Z,95666.00
2018-07-03T05:46:22.286Z,95665.00
2018-07-03T05:46:54.307Z,95665.00
2018-07-03T05:47:26.338Z,95667.00
2018-07-03T05:47:58.343Z,95674.00
2018-07-03T05:48:30.341Z,95672.00
2018-07-03T05:49:02.362Z,95666.00
2018-07-03T05:49:34.367Z,95671.00
2018-07-03T05:50:06.380Z,95669.00
2018-07-03T05:50:38.439Z,95673.00
2018-07-03T05:51:10.460Z,95671.00
2018-07-03T05:51:42.496Z,95672.00
2018-07-03T05:52:14.533Z,95673.00
2018-07-03T05:52:46.547Z,95675.00
2018-07-03T05:53:18.744Z,95679.00
2018-07-03T05:53:50.575Z,95670.00
2018-07-03T05:54:22.815Z,95667.00
2018-07-03T05:54:54.624Z,95670.00
2018-07-03T05:55:26.624Z,95668.00
2018-07-03T05:55:58.635Z,95671.00
2018-07-03T05:56:30.681Z,95667.00
2018-07-03T05:57:02.672Z,95667.00
2018-07-03T05:57:34.681Z,95666.00
2018-07-03T05:58:06.688Z,95672.00
2018-07-03T05:58:38.748Z,95667.00
2018-07-03T05:59:10.795Z,95675.00
2018-07-03T05:59:42.815Z,95667.00
2018-07-03T06:00:14.815Z,95675.00
2018-07-03T06:00:46.835Z,95673.00
2018-07-03T06:01:18.855Z,95674.00
2018-07-03T06:01:50.903Z,95670.00
2018-07-03T06:02:22.934Z,95671.00
2018-07-03T06:02:54.959Z,95676.00
2018-07-03T06:03:27.085Z,95678.00
2018-07-03T06:03:59.115Z,95678.00
2018-07-03T06:04:31.140Z,95683.00
2018-07-03T06:05:03.150Z,95675.00
2018-07-03T06:05:35.179Z,95677.00
2018-07-03T06:06:07.174Z,95677.00
2018-07-03T06:06:39.196Z,95672.00
2018-07-03T06:07:11.216Z,95674.00
2018-07-03T06:07:43.222Z,95672.00
2018-07-03T06:08:15.239Z,95675.00
2018-07-03T06:08:47.290Z,95673.00
2018-07-03T06:09:19.325Z,95671.00
2018-07-03T06:09:51.269Z,95671.00
2018-07-03T06:10:23.287Z,95670.00
2018-07-03T06:10:55.347Z,95671.00
2018-07-03T06:11:27.362Z,95674.00
2018-07-03T06:11:59.456Z,95672.00
2018-07-03T06:12:31.519Z,95666.00
2018-07-03T06:13:03.546Z,95673.00
2018-07-03T06:13:35.614Z,95674.00
2018-07-03T06:14:07.673Z,95676.00
2018-07-03T06:14:39.672Z,95674.00
2018-07-03T06:15:11.696Z,95676.00
2018-07-03T06:15:43.752Z,95673.00
2018-07-03T06:16:15.779Z,95672.00
2018-07-03T06:16:47.826Z,95673.00
2018-07-03T06:17:19.843Z,95673.00
2018-07-03T06:17:51.871Z,95676.00
2018-07-03T06:18:23.884Z,95675.00
2018-07-03T06:18:55.882Z,95672.00
2018-07-03T06:19:27.992Z,95677.00
2018-07-03T06:20:00.031Z,95675.00
2018-07-03T06:20:32.030Z,95674.00
2018-07-03T06:21:04.040Z,95677.00
2018-07-03T06:21:36.040Z,95675.00
2018-07-03T06:22:08.056Z,95673.00
2018-07-03T06:22:40.113Z,95676.00
2018-07-03T06:23:12.115Z,95681.00
2018-07-03T06:23:44.189Z,95678.00
2018-07-03T06:24:16.202Z,95679.00
2018-07-03T06:24:48.207Z,95678.00
2018-07-03T06:25:20.220Z,95679.00
2018-07-03T06:25:52.251Z,95681.00
2018-07-03T06:26:24.258Z,95685.00